Time;durP1;ratioP1;P1;durP2;ratioP2;P2;SDS_P1;SDS_P2;PMS_P1;PMS_P2;Temp;Humidity;BMP_temperature;BMP_pressure;BME280_temperature;BME280_humidity;BME280_pressure;Samples;Min_cycle;Max_cycle;Signal;HPM_P1;HPM_P2
2024/02/27 00:04:24;;;;;;;26.17;23.85;;;4.90;99.90;;;;;;12517989;28;20134;-35
2024/02/27 00:10:26;;;;;;;26.92;24.13;;;4.80;99.90;;;;;;12534659;28;20540;-34
2024/02/27 00:16:27;;;;;;;23.48;21.15;;;4.70;99.90;;;;;;12533533;28;20136;-35
2024/02/27 00:22:30;;;;;;;25.08;22.73;;;4.80;99.90;;;;;;12511603;28;20056;-35
2024/02/27 00:28:32;;;;;;;26.83;24.40;;;4.70;99.90;;;;;;12509649;28;20421;-36
2024/02/27 00:34:35;;;;;;;26.55;24.15;;;4.60;99.90;;;;;;12501739;28;20394;-35
2024/02/27 00:40:37;;;;;;;27.97;25.57;;;4.50;99.90;;;;;;12499937;28;20412;-35
2024/02/27 00:46:39;;;;;;;26.50;23.80;;;4.40;99.90;;;;;;12499049;28;20049;-35
2024/02/27 00:52:41;;;;;;;28.08;25.10;;;4.30;99.90;;;;;;12494056;28;20060;-35
2024/02/27 00:58:43;;;;;;;26.90;24.35;;;4.20;99.90;;;;;;12509375;28;20504;-35
2024/02/27 01:04:45;;;;;;;26.33;23.92;;;4.20;99.90;;;;;;12500980;28;20052;-35
2024/02/27 01:10:47;;;;;;;27.83;25.33;;;4.20;99.90;;;;;;12520037;28;20049;-35
2024/02/27 01:16:49;;;;;;;26.95;24.25;;;4.10;99.90;;;;;;12502560;28;20049;-35
2024/02/27 01:22:51;;;;;;;26.35;23.95;;;4.00;99.90;;;;;;12503212;28;20049;-35
2024/02/27 01:28:53;;;;;;;28.50;25.58;;;4.00;99.90;;;;;;12506903;28;20529;-35
2024/02/27 01:34:55;;;;;;;27.10;24.58;;;4.00;99.90;;;;;;12522865;28;20634;-36
2024/02/27 01:40:57;;;;;;;29.95;26.88;;;3.90;99.90;;;;;;12497100;28;20048;-36
2024/02/27 01:47:00;;;;;;;27.58;24.70;;;3.80;99.90;;;;;;12490845;28;20050;-35
2024/02/27 01:53:03;;;;;;;28.30;25.33;;;3.80;99.90;;;;;;12516875;28;20053;-36
2024/02/27 01:59:08;;;;;;;26.75;23.95;;;3.70;99.90;;;;;;12512021;28;20072;-36
2024/02/27 02:05:10;;;;;;;27.85;24.85;;;3.60;99.90;;;;;;12516400;28;20044;-36
2024/02/27 02:11:13;;;;;;;27.65;24.35;;;3.60;99.90;;;;;;12500505;28;20053;-35
2024/02/27 02:17:14;;;;;;;25.73;23.17;;;3.50;99.90;;;;;;12520233;28;20060;-36
2024/02/27 02:23:16;;;;;;;25.65;23.13;;;3.40;99.90;;;;;;12499975;28;20045;-36
2024/02/27 02:29:18;;;;;;;26.17;23.63;;;3.30;99.90;;;;;;12498295;28;20417;-35
2024/02/27 02:35:20;;;;;;;26.05;23.23;;;3.30;99.90;;;;;;12509319;28;20049;-36
2024/02/27 02:41:22;;;;;;;25.80;22.58;;;3.40;99.90;;;;;;12479858;28;20056;-35
2024/02/27 02:47:24;;;;;;;24.33;21.80;;;3.30;99.90;;;;;;12489972;28;20139;-36
2024/02/27 02:53:26;;;;;;;24.90;22.20;;;3.20;99.90;;;;;;12492833;28;20049;-36
2024/02/27 02:59:28;;;;;;;22.13;20.00;;;3.20;99.90;;;;;;12472549;28;20394;-35
2024/02/27 03:05:30;;;;;;;23.90;21.40;;;3.20;99.90;;;;;;12501965;28;20445;-35
2024/02/27 03:11:31;;;;;;;22.20;20.00;;;3.30;99.90;;;;;;12486035;28;20061;-36
2024/02/27 03:17:33;;;;;;;24.58;21.90;;;3.20;99.90;;;;;;12485880;28;20132;-36
2024/02/27 03:23:35;;;;;;;23.92;21.45;;;3.30;99.90;;;;;;12479547;28;20076;-35
2024/02/27 03:29:37;;;;;;;23.67;21.10;;;3.30;99.90;;;;;;12506772;28;20055;-35
2024/02/27 03:35:40;;;;;;;24.13;21.70;;;3.50;99.90;;;;;;12499985;28;20049;-35
2024/02/27 03:41:42;;;;;;;25.83;21.85;;;3.50;99.90;;;;;;12500804;28;20136;-35
2024/02/27 03:47:45;;;;;;;25.73;22.88;;;3.60;99.90;;;;;;12516344;28;20494;-36
2024/02/27 03:53:47;;;;;;;28.52;23.35;;;3.60;99.90;;;;;;12509333;28;20413;-35
2024/02/27 03:59:49;;;;;;;27.83;23.27;;;3.60;99.90;;;;;;12488091;28;20052;-35
2024/02/27 04:05:51;;;;;;;29.35;23.60;;;3.60;99.90;;;;;;12492704;28;20042;-35
2024/02/27 04:11:53;;;;;;;27.85;23.50;;;3.50;99.90;;;;;;12521894;28;20056;-35
2024/02/27 04:17:55;;;;;;;27.20;23.50;;;3.40;99.90;;;;;;12491914;28;20053;-35
2024/02/27 04:23:57;;;;;;;26.83;20.33;;;3.50;99.90;;;;;;12499218;28;20052;-36
2024/02/27 04:29:59;;;;;;;25.80;20.55;;;3.60;99.90;;;;;;12526844;28;20105;-34
2024/02/27 04:36:01;;;;;;;27.08;21.50;;;3.30;99.90;;;;;;12496371;28;20060;-36
2024/02/27 04:42:04;;;;;;;23.90;20.83;;;3.40;99.90;;;;;;12492521;28;20122;-35
2024/02/27 04:48:06;;;;;;;23.67;20.25;;;3.10;99.90;;;;;;12518006;28;20045;-34
2024/02/27 04:54:09;;;;;;;21.15;18.73;;;3.30;99.90;;;;;;12519985;28;20045;-36
2024/02/27 05:00:11;;;;;;;22.95;18.83;;;3.00;99.90;;;;;;12523412;28;20131;-36
2024/02/27 05:06:13;;;;;;;21.95;19.20;;;2.70;99.90;;;;;;12516321;28;20477;-35
2024/02/27 05:12:15;;;;;;;20.92;17.85;;;2.70;99.90;;;;;;12513984;28;20072;-35
2024/02/27 05:18:17;;;;;;;27.15;18.83;;;2.70;99.90;;;;;;12512580;28;20382;-35
2024/02/27 05:24:19;;;;;;;20.00;17.67;;;2.60;99.90;;;;;;12507772;28;20057;-35
2024/02/27 05:30:21;;;;;;;25.35;18.65;;;2.60;99.90;;;;;;12498971;28;20102;-35
2024/02/27 05:36:24;;;;;;;23.58;17.85;;;2.80;99.90;;;;;;12506825;28;20053;-35
2024/02/27 05:42:26;;;;;;;21.85;18.48;;;2.80;99.90;;;;;;12474470;28;20049;-35
2024/02/27 05:48:28;;;;;;;19.38;17.25;;;2.70;99.90;;;;;;12527197;28;20102;-35
2024/02/27 05:54:30;;;;;;;20.92;17.23;;;2.70;99.90;;;;;;12521400;28;20053;-35
2024/02/27 06:00:32;;;;;;;23.90;18.95;;;2.70;99.90;;;;;;12509707;28;20124;-35
2024/02/27 06:06:34;;;;;;;21.75;18.60;;;2.70;99.90;;;;;;12498762;28;20049;-35
2024/02/27 06:12:36;;;;;;;23.05;20.08;;;2.70;99.90;;;;;;12496109;28;20057;-35
2024/02/27 06:18:42;;;;;;;23.60;18.60;;;2.70;99.90;;;;;;12519658;28;20094;-35
2024/02/27 06:24:44;;;;;;;23.48;18.05;;;2.70;99.90;;;;;;12521662;28;20045;-35
2024/02/27 06:30:46;;;;;;;21.35;18.38;;;2.70;99.90;;;;;;12499737;28;20064;-35
2024/02/27 06:36:50;;;;;;;22.73;18.10;;;2.80;99.90;;;;;;12514764;28;20194;-35
2024/02/27 06:42:51;;;;;;;22.15;18.13;;;2.80;99.90;;;;;;12488345;28;20131;-35
2024/02/27 06:48:53;;;;;;;25.13;19.27;;;2.80;99.90;;;;;;12484307;28;20086;-36
2024/02/27 06:55:12;;;;;;;23.33;19.38;;;2.80;99.90;;;;;;12519906;28;20048;-36
2024/02/27 07:01:14;;;;;;;23.73;19.75;;;2.90;99.90;;;;;;12510596;28;20860;-35
2024/02/27 07:07:16;;;;;;;24.27;20.30;;;3.00;99.90;;;;;;12511467;28;20128;-36
2024/02/27 07:13:18;;;;;;;23.50;19.52;;;3.10;99.90;;;;;;12507765;28;20075;-35
2024/02/27 07:19:21;;;;;;;21.83;19.45;;;3.00;99.90;;;;;;12516761;28;20400;-35
2024/02/27 07:25:23;;;;;;;25.05;20.95;;;3.10;99.90;;;;;;12503246;28;20060;-35
2024/02/27 07:31:25;;;;;;;22.33;19.85;;;3.20;99.90;;;;;;12477030;28;20089;-36
2024/02/27 07:37:27;;;;;;;22.70;20.42;;;3.20;99.90;;;;;;12489588;28;20061;-36
2024/02/27 07:43:29;;;;;;;22.55;20.25;;;3.20;99.90;;;;;;12512329;28;20045;-36
2024/02/27 07:49:31;;;;;;;26.40;21.50;;;3.30;99.90;;;;;;12527769;28;20076;-36
2024/02/27 07:55:33;;;;;;;22.85;19.85;;;3.30;99.90;;;;;;12506650;28;20049;-36
2024/02/27 08:01:35;;;;;;;23.63;21.13;;;3.20;99.90;;;;;;12522491;28;20056;-36
2024/02/27 08:07:37;;;;;;;24.27;21.73;;;3.30;99.90;;;;;;12523203;28;20053;-36
2024/02/27 08:13:39;;;;;;;22.85;20.63;;;3.40;99.90;;;;;;12510165;28;20191;-36
2024/02/27 08:19:42;;;;;;;27.23;20.58;;;3.40;99.90;;;;;;12519207;28;20470;-36
2024/02/27 08:25:45;;;;;;;22.35;20.35;;;3.30;99.90;;;;;;12517777;28;20417;-36
2024/02/27 08:31:47;;;;;;;21.52;19.42;;;3.50;99.90;;;;;;12508729;28;20544;-35
2024/02/27 08:37:49;;;;;;;25.00;22.50;;;3.60;99.90;;;;;;12519626;28;20073;-36
2024/02/27 08:43:51;;;;;;;23.83;21.60;;;3.50;99.90;;;;;;12519551;28;20516;-36
2024/02/27 08:49:53;;;;;;;27.75;25.13;;;3.80;99.90;;;;;;12513823;28;20092;-36
2024/02/27 08:55:55;;;;;;;26.58;24.27;;;3.90;99.90;;;;;;12514746;28;20123;-36
2024/02/27 09:01:57;;;;;;;27.48;24.98;;;3.90;99.90;;;;;;12493105;28;20413;-36
2024/02/27 09:07:59;;;;;;;27.27;24.98;;;3.90;99.90;;;;;;12510303;28;20198;-36
2024/02/27 09:14:01;;;;;;;26.90;24.50;;;3.90;99.90;;;;;;12499518;28;20045;-36
2024/02/27 09:20:04;;;;;;;26.77;24.33;;;4.00;99.90;;;;;;12516299;28;20052;-36
2024/02/27 09:26:06;;;;;;;28.83;26.30;;;4.10;99.90;;;;;;12488448;28;20128;-35
2024/02/27 09:32:07;;;;;;;29.17;26.60;;;4.20;99.90;;;;;;12508032;28;20767;-36
2024/02/27 09:38:09;;;;;;;27.00;24.60;;;4.30;99.90;;;;;;12518829;28;20050;-36
2024/02/27 09:44:11;;;;;;;29.60;27.20;;;4.20;99.90;;;;;;12509297;28;20405;-36
2024/02/27 09:50:18;;;;;;;30.73;28.10;;;4.20;99.90;;;;;;12517275;28;20061;-36
2024/02/27 09:56:24;;;;;;;29.08;26.77;;;4.40;99.90;;;;;;12508214;28;20131;-36
2024/02/27 10:02:26;;;;;;;27.70;25.33;;;4.70;99.90;;;;;;12514473;28;20509;-36
2024/02/27 10:08:30;;;;;;;30.27;27.98;;;4.70;99.90;;;;;;12489610;28;20064;-36
2024/02/27 10:14:37;;;;;;;30.27;27.88;;;4.50;99.90;;;;;;12490924;28;20128;-36
2024/02/27 10:20:43;;;;;;;36.13;33.35;;;4.70;99.90;;;;;;12518071;28;20428;-36
2024/02/27 10:26:56;;;;;;;39.15;36.33;;;4.80;99.90;;;;;;12516053;28;20481;-36
2024/02/27 10:33:01;;;;;;;31.98;29.58;;;5.10;99.90;;;;;;12511256;28;20516;-36
2024/02/27 10:39:08;;;;;;;30.85;28.48;;;5.10;99.90;;;;;;12515356;28;20203;-36
2024/02/27 10:45:11;;;;;;;29.23;27.03;;;5.30;99.90;;;;;;12520860;28;20037;-36
2024/02/27 10:51:13;;;;;;;31.73;29.17;;;5.50;99.90;;;;;;12503148;28;20291;-36
2024/02/27 10:57:17;;;;;;;32.88;30.20;;;5.70;99.90;;;;;;12501616;28;20052;-36
2024/02/27 11:03:21;;;;;;;30.23;27.83;;;5.40;99.90;;;;;;12526658;28;20045;-36
2024/02/27 11:09:28;;;;;;;29.00;26.90;;;5.80;99.90;;;;;;12500758;28;20382;-36
2024/02/27 11:15:32;;;;;;;32.38;29.98;;;5.80;99.90;;;;;;12517435;28;20087;-36
2024/02/27 11:21:34;;;;;;;32.40;30.00;;;5.60;99.90;;;;;;12494808;28;20041;-36
2024/02/27 11:27:37;;;;;;;35.60;33.10;;;5.60;99.90;;;;;;12492488;28;20385;-36
2024/02/27 11:33:51;;;;;;;29.23;27.13;;;5.80;99.90;;;;;;12503898;28;20068;-36
2024/02/27 11:39:53;;;;;;;29.63;27.37;;;6.00;99.90;;;;;;12510165;28;20049;-36
2024/02/27 11:45:59;;;;;;;28.13;26.13;;;6.20;99.90;;;;;;12497542;28;20045;-37
2024/02/27 11:52:01;;;;;;;24.42;22.63;;;6.30;99.90;;;;;;12502809;28;20057;-36
2024/02/27 11:58:03;;;;;;;28.73;26.58;;;6.50;99.90;;;;;;12511938;28;20056;-36
2024/02/27 12:04:07;;;;;;;31.40;29.20;;;6.20;99.90;;;;;;12504875;28;20413;-36
2024/02/27 12:10:13;;;;;;;35.00;32.60;;;6.10;99.90;;;;;;12495123;28;20128;-36
2024/02/27 12:16:26;;;;;;;30.13;28.00;;;6.30;99.90;;;;;;12503207;28;20048;-36
2024/02/27 12:22:28;;;;;;;24.10;22.20;;;6.60;99.90;;;;;;12510533;28;20135;-36
2024/02/27 12:28:30;;;;;;;25.50;23.30;;;6.50;99.90;;;;;;12505394;28;20175;-36
2024/02/27 12:34:33;;;;;;;21.45;19.55;;;6.40;99.90;;;;;;12515931;28;20084;-37
2024/02/27 12:40:36;;;;;;;30.80;28.60;;;6.40;99.90;;;;;;12499076;28;20053;-36
2024/02/27 12:46:38;;;;;;;32.88;30.55;;;6.50;99.90;;;;;;12501283;28;20482;-36
2024/02/27 12:52:40;;;;;;;27.73;25.48;;;6.00;99.90;;;;;;12486694;28;20052;-36
2024/02/27 12:58:50;;;;;;;35.05;32.53;;;6.50;99.90;;;;;;12504107;28;20049;-35
2024/02/27 13:04:52;;;;;;;36.58;33.88;;;6.80;99.90;;;;;;12491304;28;20090;-36
2024/02/27 13:10:56;;;;;;;29.48;27.17;;;6.50;99.90;;;;;;12496951;28;20045;-36
2024/02/27 13:16:58;;;;;;;29.58;27.38;;;7.00;99.90;;;;;;12526493;28;20128;-36
2024/02/27 13:23:02;;;;;;;30.08;27.90;;;7.10;99.90;;;;;;12503671;28;20046;-36
2024/02/27 13:29:17;;;;;;;34.28;31.58;;;7.40;99.90;;;;;;12486168;28;20053;-36
2024/02/27 13:35:20;;;;;;;35.50;32.75;;;7.60;99.90;;;;;;12513672;28;20056;-36
2024/02/27 13:41:22;;;;;;;32.55;29.95;;;7.20;99.90;;;;;;12526036;28;20061;-37
2024/02/27 13:47:25;;;;;;;29.60;27.13;;;6.90;99.90;;;;;;12502945;28;20084;-36
2024/02/27 13:53:27;;;;;;;32.40;29.90;;;6.70;99.90;;;;;;12510061;28;20525;-36
2024/02/27 13:59:30;;;;;;;29.23;26.90;;;6.70;99.90;;;;;;12506304;28;20479;-36
2024/02/27 14:05:32;;;;;;;29.67;27.27;;;7.00;99.90;;;;;;12515129;28;20504;-36
2024/02/27 14:11:34;;;;;;;28.80;26.45;;;7.20;99.90;;;;;;12512298;28;20489;-36
2024/02/27 14:17:36;;;;;;;26.55;24.17;;;7.40;99.90;;;;;;12503478;28;20052;-36
2024/02/27 14:23:38;;;;;;;25.88;23.83;;;7.20;99.90;;;;;;12487958;28;20041;-36
2024/02/27 14:29:40;;;;;;;25.60;23.52;;;6.40;99.90;;;;;;12501243;28;20091;-36
2024/02/27 14:35:42;;;;;;;22.95;21.05;;;6.40;99.90;;;;;;12500991;28;20077;-37
2024/02/27 14:41:44;;;;;;;24.42;22.52;;;6.20;99.90;;;;;;12493754;28;20127;-36
2024/02/27 14:47:46;;;;;;;22.50;20.83;;;6.10;99.90;;;;;;12529791;28;20079;-36
2024/02/27 14:53:48;;;;;;;23.75;21.75;;;6.10;99.90;;;;;;12495673;28;20053;-36
2024/02/27 14:59:50;;;;;;;22.73;20.88;;;6.10;99.90;;;;;;12510976;28;20046;-37
2024/02/27 15:05:52;;;;;;;20.65;18.98;;;6.10;99.90;;;;;;12499498;28;20045;-37
2024/02/27 15:11:54;;;;;;;23.10;21.30;;;6.10;99.90;;;;;;12491824;28;20045;-36
2024/02/27 15:17:56;;;;;;;22.80;20.70;;;6.10;99.90;;;;;;12493901;28;20075;-36
2024/02/27 15:23:58;;;;;;;21.35;19.48;;;6.10;99.90;;;;;;12519656;28;20436;-36
2024/02/27 15:30:00;;;;;;;22.77;20.77;;;6.10;99.90;;;;;;12517474;28;20398;-36
2024/02/27 15:36:02;;;;;;;20.17;18.38;;;6.00;99.90;;;;;;12499162;28;20076;-36
2024/02/27 15:42:04;;;;;;;20.48;18.77;;;6.00;99.90;;;;;;12503319;28;20045;-37
2024/02/27 15:48:09;;;;;;;21.58;19.70;;;6.00;99.90;;;;;;12509672;28;20041;-36
2024/02/27 15:54:12;;;;;;;21.98;20.08;;;6.10;99.90;;;;;;12507789;28;20516;-36
2024/02/27 16:00:16;;;;;;;20.27;18.38;;;6.00;99.90;;;;;;12513963;28;20068;-36
2024/02/27 16:06:24;;;;;;;;;;;6.00;99.90;;;;;;12500055;28;20053;-36
2024/02/27 16:12:26;;;;;;;19.10;17.23;;;6.00;99.90;;;;;;12493972;28;19965;-41
2024/02/27 16:18:35;;;;;;;19.05;17.23;;;5.70;99.90;;;;;;12511371;28;20049;-36
2024/02/27 16:24:37;;;;;;;18.67;16.55;;;5.60;99.90;;;;;;12507516;28;20046;-36
2024/02/27 16:30:39;;;;;;;18.48;16.65;;;5.40;99.90;;;;;;12508431;28;20045;-36
2024/02/27 16:36:41;;;;;;;19.25;17.27;;;5.40;99.90;;;;;;12505442;28;20053;-36
2024/02/27 16:42:44;;;;;;;18.15;16.38;;;5.20;99.90;;;;;;12505484;28;20041;-36
2024/02/27 16:48:46;;;;;;;17.05;15.25;;;5.00;99.90;;;;;;12529367;28;20049;-36
2024/02/27 16:54:50;;;;;;;18.55;16.55;;;4.80;99.90;;;;;;12529742;28;20091;-36
2024/02/27 17:00:53;;;;;;;20.45;17.08;;;4.60;99.90;;;;;;12513794;28;20040;-36
2024/02/27 17:06:55;;;;;;;24.33;17.58;;;4.40;99.90;;;;;;12508617;28;20188;-36
2024/02/27 17:12:57;;;;;;;22.88;17.77;;;4.20;99.90;;;;;;12509800;28;20099;-37
2024/02/27 17:18:59;;;;;;;17.70;14.82;;;4.10;99.90;;;;;;12487511;28;20048;-36
2024/02/27 17:25:02;;;;;;;18.63;15.05;;;4.10;99.90;;;;;;12513333;28;20048;-36
2024/02/27 17:31:04;;;;;;;18.52;15.15;;;4.10;99.90;;;;;;12514208;28;20045;-36
2024/02/27 17:37:08;;;;;;;19.30;16.70;;;4.20;99.90;;;;;;12490283;28;20053;-37
2024/02/27 17:43:11;;;;;;;21.93;18.00;;;4.10;99.90;;;;;;12495849;28;20091;-36
2024/02/27 17:49:12;;;;;;;20.33;17.10;;;4.00;99.90;;;;;;12500136;28;20292;-36
2024/02/27 17:55:14;;;;;;;20.30;16.10;;;4.00;99.90;;;;;;12503689;28;20095;-36
2024/02/27 18:01:16;;;;;;;18.80;16.50;;;3.90;99.90;;;;;;12489272;28;20045;-36
2024/02/27 18:07:18;;;;;;;21.58;17.10;;;4.00;99.90;;;;;;12486968;28;20053;-36
2024/02/27 18:13:20;;;;;;;22.85;19.10;;;4.00;99.90;;;;;;12492903;28;20049;-36
2024/02/27 18:19:22;;;;;;;24.92;19.15;;;4.00;99.90;;;;;;12478029;28;20051;-36
2024/02/27 18:25:24;;;;;;;23.33;18.58;;;4.00;99.90;;;;;;12485496;28;20041;-35
2024/02/27 18:31:26;;;;;;;29.42;24.58;;;3.90;99.90;;;;;;12518566;28;20053;-36
2024/02/27 18:37:28;;;;;;;27.70;21.30;;;3.80;99.90;;;;;;12482530;28;20073;-36
2024/02/27 18:43:30;;;;;;;28.23;20.48;;;3.90;99.90;;;;;;12512240;28;20053;-36
2024/02/27 18:49:32;;;;;;;23.15;19.50;;;4.00;99.90;;;;;;12513401;28;20068;-36
2024/02/27 18:55:34;;;;;;;19.02;16.90;;;4.10;99.90;;;;;;12516476;28;20041;-36
2024/02/27 19:01:36;;;;;;;21.98;16.90;;;4.20;99.90;;;;;;12502540;28;20080;-36
2024/02/27 19:07:39;;;;;;;21.77;18.05;;;4.10;99.90;;;;;;12500865;28;20068;-36
2024/02/27 19:13:41;;;;;;;21.88;16.40;;;4.20;99.90;;;;;;12487806;28;20052;-36
2024/02/27 19:19:43;;;;;;;19.40;16.27;;;4.30;99.90;;;;;;12511549;28;20049;-35
2024/02/27 19:25:45;;;;;;;19.30;17.02;;;4.40;99.90;;;;;;12504828;28;20045;-36
2024/02/27 19:31:46;;;;;;;19.85;16.80;;;4.20;99.90;;;;;;12507748;28;20076;-36
2024/02/27 19:37:48;;;;;;;20.00;17.90;;;4.20;99.90;;;;;;12518031;28;20052;-36
2024/02/27 19:43:50;;;;;;;23.50;19.77;;;4.10;99.90;;;;;;12510084;28;20041;-36
2024/02/27 19:49:52;;;;;;;22.75;19.98;;;4.10;99.90;;;;;;12514845;28;20493;-36
2024/02/27 19:55:54;;;;;;;22.08;19.77;;;4.10;99.90;;;;;;12523344;28;20512;-36
2024/02/27 20:01:56;;;;;;;25.60;21.83;;;4.10;99.90;;;;;;12500286;28;20091;-36
2024/02/27 20:07:58;;;;;;;24.63;21.77;;;4.00;99.90;;;;;;12520253;28;20053;-37
2024/02/27 20:14:00;;;;;;;27.15;24.25;;;3.90;99.90;;;;;;12513867;28;20071;-36
2024/02/27 20:20:02;;;;;;;26.40;23.77;;;3.70;99.90;;;;;;12518928;28;20076;-36
2024/02/27 20:26:05;;;;;;;26.45;23.35;;;3.60;99.90;;;;;;12536881;28;20124;-36
2024/02/27 20:32:06;;;;;;;26.92;24.08;;;3.40;99.90;;;;;;12513420;28;20055;-36
2024/02/27 20:38:14;;;;;;;28.20;24.20;;;3.10;99.90;;;;;;12512311;28;20421;-36
2024/02/27 20:44:16;;;;;;;32.03;25.98;;;2.90;99.90;;;;;;12491529;28;20053;-36
2024/02/27 20:50:18;;;;;;;29.02;24.42;;;2.60;99.90;;;;;;12528444;28;20087;-36
2024/02/27 20:56:20;;;;;;;30.10;24.17;;;2.40;99.90;;;;;;12509864;28;20464;-36
2024/02/27 21:02:21;;;;;;;33.10;24.52;;;2.40;99.90;;;;;;12530613;28;20041;-36
2024/02/27 21:08:23;;;;;;;28.30;21.75;;;2.20;99.90;;;;;;12514659;28;20095;-36
2024/02/27 21:14:25;;;;;;;23.20;18.30;;;2.10;99.90;;;;;;12506438;28;20053;-36
2024/02/27 21:20:27;;;;;;;23.88;19.38;;;2.10;99.90;;;;;;12494302;28;20501;-36
2024/02/27 21:26:29;;;;;;;24.77;20.08;;;2.10;99.90;;;;;;12512725;28;20041;-36
2024/02/27 21:32:31;;;;;;;23.20;20.67;;;1.80;99.90;;;;;;12501583;28;20132;-36
2024/02/27 21:38:33;;;;;;;26.83;19.95;;;1.80;99.90;;;;;;12489012;28;20080;-35
2024/02/27 21:44:34;;;;;;;21.90;18.83;;;1.80;99.90;;;;;;12517239;28;20060;-35
2024/02/27 21:50:36;;;;;;;23.70;18.17;;;1.70;99.90;;;;;;12521162;28;20724;-36
2024/02/27 21:56:38;;;;;;;24.75;18.08;;;1.80;99.90;;;;;;12512843;28;20058;-36
2024/02/27 22:02:40;;;;;;;24.02;18.67;;;1.80;99.90;;;;;;12531202;28;20413;-36
2024/02/27 22:08:42;;;;;;;26.02;20.92;;;1.70;99.90;;;;;;12513722;28;20156;-35
2024/02/27 22:14:44;;;;;;;23.15;18.67;;;1.40;99.90;;;;;;12516367;28;20044;-36
2024/02/27 22:20:46;;;;;;;24.60;19.65;;;1.30;99.90;;;;;;12517781;28;20519;-36
2024/02/27 22:26:48;;;;;;;24.23;19.02;;;1.30;99.90;;;;;;12508557;28;20041;-36
2024/02/27 22:32:52;;;;;;;25.60;18.92;;;1.30;99.90;;;;;;12505548;28;20048;-36
2024/02/27 22:38:54;;;;;;;25.17;18.27;;;1.40;99.90;;;;;;12494635;28;20053;-36
2024/02/27 22:44:55;;;;;;;27.05;18.27;;;1.40;99.90;;;;;;12508842;28;20210;-35
2024/02/27 22:50:57;;;;;;;24.55;18.17;;;1.50;99.90;;;;;;12516472;28;20422;-36
2024/02/27 22:56:59;;;;;;;26.52;18.52;;;1.40;99.90;;;;;;12507673;28;20099;-36
2024/02/27 23:03:01;;;;;;;25.70;18.00;;;1.20;99.90;;;;;;12525516;28;20042;-36
2024/02/27 23:09:03;;;;;;;26.63;20.77;;;1.20;99.90;;;;;;12472206;28;20523;-36
2024/02/27 23:15:06;;;;;;;29.38;20.13;;;1.30;99.90;;;;;;12508876;28;20084;-36
2024/02/27 23:21:08;;;;;;;24.38;18.60;;;1.30;99.90;;;;;;12511313;28;20042;-36
2024/02/27 23:27:09;;;;;;;27.13;19.95;;;1.20;99.90;;;;;;12514126;28;20053;-36
2024/02/27 23:33:11;;;;;;;28.55;20.33;;;1.10;99.90;;;;;;12507576;28;20084;-36
2024/02/27 23:39:13;;;;;;;25.70;20.08;;;0.90;99.90;;;;;;12518772;28;20053;-36
2024/02/27 23:45:15;;;;;;;24.55;19.60;;;0.90;99.90;;;;;;12518171;28;20041;-36
2024/02/27 23:51:19;;;;;;;26.55;20.77;;;0.90;99.90;;;;;;12510540;28;20053;-35
2024/02/27 23:57:21;;;;;;;28.40;21.50;;;0.70;99.90;;;;;;12504913;28;20425;-36
